sensor_id;sensor_type;location;lat;lon;timestamp;P1;durP1;ratioP1;P2;durP2;ratioP2
55328;SDS011;41205;44.264;19.884;2024-01-06T00:01:00;30.75;;;20.60;;
55328;SDS011;41205;44.264;19.884;2024-01-06T00:03:26;65.70;;;40.97;;
55328;SDS011;41205;44.264;19.884;2024-01-06T00:05:52;146.90;;;85.30;;
55328;SDS011;41205;44.264;19.884;2024-01-06T00:08:17;132.73;;;78.40;;
55328;SDS011;41205;44.264;19.884;2024-01-06T00:10:43;70.18;;;48.05;;
55328;SDS011;41205;44.264;19.884;2024-01-06T00:13:09;93.20;;;60.28;;
55328;SDS011;41205;44.264;19.884;2024-01-06T00:15:35;148.02;;;83.47;;
55328;SDS011;41205;44.264;19.884;2024-01-06T00:18:01;146.23;;;86.20;;
55328;SDS011;41205;44.264;19.884;2024-01-06T00:20:27;73.72;;;42.70;;
55328;SDS011;41205;44.264;19.884;2024-01-06T00:22:53;235.52;;;123.40;;
55328;SDS011;41205;44.264;19.884;2024-01-06T00:25:20;129.55;;;75.25;;
55328;SDS011;41205;44.264;19.884;2024-01-06T00:27:46;58.97;;;34.00;;
55328;SDS011;41205;44.264;19.884;2024-01-06T00:30:12;41.00;;;25.75;;
55328;SDS011;41205;44.264;19.884;2024-01-06T00:32:38;23.58;;;16.88;;
55328;SDS011;41205;44.264;19.884;2024-01-06T00:35:04;29.83;;;20.35;;
55328;SDS011;41205;44.264;19.884;2024-01-06T00:37:30;52.03;;;31.77;;
55328;SDS011;41205;44.264;19.884;2024-01-06T00:39:55;37.67;;;24.95;;
55328;SDS011;41205;44.264;19.884;2024-01-06T00:42:21;71.93;;;42.20;;
55328;SDS011;41205;44.264;19.884;2024-01-06T00:44:47;60.53;;;33.78;;
55328;SDS011;41205;44.264;19.884;2024-01-06T00:47:13;50.40;;;32.05;;
55328;SDS011;41205;44.264;19.884;2024-01-06T00:49:38;41.75;;;24.58;;
55328;SDS011;41205;44.264;19.884;2024-01-06T00:52:04;82.03;;;49.70;;
55328;SDS011;41205;44.264;19.884;2024-01-06T00:54:30;25.77;;;15.70;;
55328;SDS011;41205;44.264;19.884;2024-01-06T00:56:56;23.80;;;14.50;;
55328;SDS011;41205;44.264;19.884;2024-01-06T00:59:21;29.90;;;20.42;;
55328;SDS011;41205;44.264;19.884;2024-01-06T01:01:47;21.90;;;15.35;;
55328;SDS011;41205;44.264;19.884;2024-01-06T01:04:13;21.55;;;16.00;;
55328;SDS011;41205;44.264;19.884;2024-01-06T01:06:38;31.00;;;19.77;;
55328;SDS011;41205;44.264;19.884;2024-01-06T01:09:04;28.25;;;18.25;;
55328;SDS011;41205;44.264;19.884;2024-01-06T01:11:30;37.33;;;23.90;;
55328;SDS011;41205;44.264;19.884;2024-01-06T01:13:56;44.25;;;29.48;;
55328;SDS011;41205;44.264;19.884;2024-01-06T01:16:22;27.73;;;17.88;;
55328;SDS011;41205;44.264;19.884;2024-01-06T01:18:47;26.25;;;16.85;;
55328;SDS011;41205;44.264;19.884;2024-01-06T01:21:14;23.50;;;19.15;;
55328;SDS011;41205;44.264;19.884;2024-01-06T01:23:40;41.95;;;28.05;;
55328;SDS011;41205;44.264;19.884;2024-01-06T01:26:05;32.58;;;21.88;;
55328;SDS011;41205;44.264;19.884;2024-01-06T01:28:31;53.22;;;32.00;;
55328;SDS011;41205;44.264;19.884;2024-01-06T01:30:57;30.27;;;19.90;;
55328;SDS011;41205;44.264;19.884;2024-01-06T01:33:23;38.72;;;24.00;;
55328;SDS011;41205;44.264;19.884;2024-01-06T01:35:49;71.30;;;41.67;;
55328;SDS011;41205;44.264;19.884;2024-01-06T01:38:14;76.18;;;46.35;;
55328;SDS011;41205;44.264;19.884;2024-01-06T01:40:40;61.15;;;35.47;;
55328;SDS011;41205;44.264;19.884;2024-01-06T01:43:15;34.17;;;23.15;;
55328;SDS011;41205;44.264;19.884;2024-01-06T01:45:41;32.42;;;21.48;;
55328;SDS011;41205;44.264;19.884;2024-01-06T01:48:07;31.60;;;19.70;;
55328;SDS011;41205;44.264;19.884;2024-01-06T01:50:33;30.85;;;19.88;;
55328;SDS011;41205;44.264;19.884;2024-01-06T01:52:59;45.65;;;26.70;;
55328;SDS011;41205;44.264;19.884;2024-01-06T01:55:25;39.72;;;25.80;;
55328;SDS011;41205;44.264;19.884;2024-01-06T01:57:51;44.83;;;28.65;;
55328;SDS011;41205;44.264;19.884;2024-01-06T02:00:17;44.45;;;29.10;;
55328;SDS011;41205;44.264;19.884;2024-01-06T02:02:43;26.33;;;18.15;;
55328;SDS011;41205;44.264;19.884;2024-01-06T02:05:09;39.83;;;25.40;;
55328;SDS011;41205;44.264;19.884;2024-01-06T02:07:35;35.17;;;24.70;;
55328;SDS011;41205;44.264;19.884;2024-01-06T02:10:01;34.83;;;25.67;;
55328;SDS011;41205;44.264;19.884;2024-01-06T02:12:27;30.33;;;20.10;;
55328;SDS011;41205;44.264;19.884;2024-01-06T02:14:52;51.88;;;36.40;;
55328;SDS011;41205;44.264;19.884;2024-01-06T02:17:18;56.63;;;37.58;;
55328;SDS011;41205;44.264;19.884;2024-01-06T02:19:44;47.15;;;31.38;;
55328;SDS011;41205;44.264;19.884;2024-01-06T02:22:09;35.63;;;24.73;;
55328;SDS011;41205;44.264;19.884;2024-01-06T02:24:35;40.17;;;23.10;;
55328;SDS011;41205;44.264;19.884;2024-01-06T02:27:01;32.13;;;23.10;;
55328;SDS011;41205;44.264;19.884;2024-01-06T02:29:27;24.92;;;16.75;;
55328;SDS011;41205;44.264;19.884;2024-01-06T02:31:52;21.30;;;15.40;;
55328;SDS011;41205;44.264;19.884;2024-01-06T02:34:18;24.38;;;17.65;;
55328;SDS011;41205;44.264;19.884;2024-01-06T02:36:44;29.27;;;18.50;;
55328;SDS011;41205;44.264;19.884;2024-01-06T02:39:09;20.38;;;14.70;;
55328;SDS011;41205;44.264;19.884;2024-01-06T02:41:35;25.52;;;17.52;;
55328;SDS011;41205;44.264;19.884;2024-01-06T02:44:02;22.88;;;16.15;;
55328;SDS011;41205;44.264;19.884;2024-01-06T02:46:28;25.13;;;15.30;;
55328;SDS011;41205;44.264;19.884;2024-01-06T02:48:54;26.83;;;18.60;;
55328;SDS011;41205;44.264;19.884;2024-01-06T02:51:20;36.72;;;27.48;;
55328;SDS011;41205;44.264;19.884;2024-01-06T02:53:46;40.30;;;26.65;;
55328;SDS011;41205;44.264;19.884;2024-01-06T02:56:12;41.00;;;27.67;;
55328;SDS011;41205;44.264;19.884;2024-01-06T02:58:38;33.80;;;24.08;;
55328;SDS011;41205;44.264;19.884;2024-01-06T03:01:04;36.60;;;23.08;;
55328;SDS011;41205;44.264;19.884;2024-01-06T03:03:30;35.75;;;23.92;;
55328;SDS011;41205;44.264;19.884;2024-01-06T03:05:55;35.28;;;22.60;;
55328;SDS011;41205;44.264;19.884;2024-01-06T03:08:21;26.45;;;18.00;;
55328;SDS011;41205;44.264;19.884;2024-01-06T03:10:48;27.85;;;18.73;;
55328;SDS011;41205;44.264;19.884;2024-01-06T03:13:14;31.30;;;21.33;;
55328;SDS011;41205;44.264;19.884;2024-01-06T03:15:40;21.10;;;15.27;;
55328;SDS011;41205;44.264;19.884;2024-01-06T03:18:06;20.90;;;14.85;;
55328;SDS011;41205;44.264;19.884;2024-01-06T03:20:32;23.02;;;15.77;;
55328;SDS011;41205;44.264;19.884;2024-01-06T03:22:57;20.50;;;14.68;;
55328;SDS011;41205;44.264;19.884;2024-01-06T03:25:23;21.70;;;13.90;;
55328;SDS011;41205;44.264;19.884;2024-01-06T03:27:49;21.60;;;14.93;;
55328;SDS011;41205;44.264;19.884;2024-01-06T03:30:14;19.45;;;13.60;;
55328;SDS011;41205;44.264;19.884;2024-01-06T03:32:40;24.85;;;15.43;;
55328;SDS011;41205;44.264;19.884;2024-01-06T03:35:06;21.05;;;15.68;;
55328;SDS011;41205;44.264;19.884;2024-01-06T03:37:32;22.52;;;14.43;;
55328;SDS011;41205;44.264;19.884;2024-01-06T03:39:58;19.90;;;13.77;;
55328;SDS011;41205;44.264;19.884;2024-01-06T03:42:24;16.95;;;12.32;;
55328;SDS011;41205;44.264;19.884;2024-01-06T03:44:50;17.77;;;11.45;;
55328;SDS011;41205;44.264;19.884;2024-01-06T03:47:15;17.67;;;12.23;;
55328;SDS011;41205;44.264;19.884;2024-01-06T03:49:41;15.82;;;11.70;;
55328;SDS011;41205;44.264;19.884;2024-01-06T03:52:07;13.23;;;9.43;;
55328;SDS011;41205;44.264;19.884;2024-01-06T03:54:32;18.15;;;11.20;;
55328;SDS011;41205;44.264;19.884;2024-01-06T03:56:58;17.00;;;10.27;;
55328;SDS011;41205;44.264;19.884;2024-01-06T03:59:24;17.45;;;9.25;;
55328;SDS011;41205;44.264;19.884;2024-01-06T04:01:50;14.55;;;9.98;;
55328;SDS011;41205;44.264;19.884;2024-01-06T04:04:16;13.45;;;9.30;;
55328;SDS011;41205;44.264;19.884;2024-01-06T04:06:42;15.00;;;10.23;;
55328;SDS011;41205;44.264;19.884;2024-01-06T04:09:08;16.45;;;9.57;;
55328;SDS011;41205;44.264;19.884;2024-01-06T04:11:34;18.20;;;10.02;;
55328;SDS011;41205;44.264;19.884;2024-01-06T04:14:00;17.13;;;11.40;;
55328;SDS011;41205;44.264;19.884;2024-01-06T04:16:28;14.30;;;10.55;;
55328;SDS011;41205;44.264;19.884;2024-01-06T04:18:54;15.57;;;11.13;;
55328;SDS011;41205;44.264;19.884;2024-01-06T04:21:20;13.25;;;9.00;;
55328;SDS011;41205;44.264;19.884;2024-01-06T04:23:46;13.77;;;8.68;;
55328;SDS011;41205;44.264;19.884;2024-01-06T04:26:12;12.48;;;8.85;;
55328;SDS011;41205;44.264;19.884;2024-01-06T04:28:38;11.98;;;8.73;;
55328;SDS011;41205;44.264;19.884;2024-01-06T04:31:04;11.05;;;8.93;;
55328;SDS011;41205;44.264;19.884;2024-01-06T04:33:29;11.38;;;7.50;;
55328;SDS011;41205;44.264;19.884;2024-01-06T04:35:56;11.45;;;8.63;;
55328;SDS011;41205;44.264;19.884;2024-01-06T04:38:23;14.57;;;8.50;;
55328;SDS011;41205;44.264;19.884;2024-01-06T04:40:48;14.13;;;9.57;;
55328;SDS011;41205;44.264;19.884;2024-01-06T04:43:14;12.50;;;8.23;;
55328;SDS011;41205;44.264;19.884;2024-01-06T04:45:40;14.52;;;7.95;;
55328;SDS011;41205;44.264;19.884;2024-01-06T04:48:06;13.50;;;9.60;;
55328;SDS011;41205;44.264;19.884;2024-01-06T04:50:31;11.00;;;7.85;;
55328;SDS011;41205;44.264;19.884;2024-01-06T04:52:57;14.27;;;8.27;;
55328;SDS011;41205;44.264;19.884;2024-01-06T04:55:23;13.70;;;8.40;;
55328;SDS011;41205;44.264;19.884;2024-01-06T04:57:49;14.38;;;8.60;;
55328;SDS011;41205;44.264;19.884;2024-01-06T05:00:15;18.90;;;11.75;;
55328;SDS011;41205;44.264;19.884;2024-01-06T05:02:41;15.70;;;9.43;;
55328;SDS011;41205;44.264;19.884;2024-01-06T05:05:06;13.27;;;8.82;;
55328;SDS011;41205;44.264;19.884;2024-01-06T05:07:32;15.75;;;9.82;;
55328;SDS011;41205;44.264;19.884;2024-01-06T05:09:58;13.63;;;10.05;;
55328;SDS011;41205;44.264;19.884;2024-01-06T05:12:24;17.67;;;10.93;;
55328;SDS011;41205;44.264;19.884;2024-01-06T05:14:49;26.08;;;17.75;;
55328;SDS011;41205;44.264;19.884;2024-01-06T05:17:15;21.73;;;12.02;;
55328;SDS011;41205;44.264;19.884;2024-01-06T05:19:41;14.05;;;10.13;;
55328;SDS011;41205;44.264;19.884;2024-01-06T05:22:06;50.17;;;26.48;;
55328;SDS011;41205;44.264;19.884;2024-01-06T05:24:32;38.95;;;24.00;;
55328;SDS011;41205;44.264;19.884;2024-01-06T05:26:58;37.25;;;25.70;;
55328;SDS011;41205;44.264;19.884;2024-01-06T05:29:24;29.85;;;19.42;;
55328;SDS011;41205;44.264;19.884;2024-01-06T05:31:51;22.65;;;14.32;;
55328;SDS011;41205;44.264;19.884;2024-01-06T05:34:17;32.10;;;26.73;;
55328;SDS011;41205;44.264;19.884;2024-01-06T05:36:42;28.23;;;18.48;;
55328;SDS011;41205;44.264;19.884;2024-01-06T05:39:08;22.38;;;16.70;;
55328;SDS011;41205;44.264;19.884;2024-01-06T05:41:37;15.50;;;10.43;;
55328;SDS011;41205;44.264;19.884;2024-01-06T05:44:04;20.48;;;12.30;;
55328;SDS011;41205;44.264;19.884;2024-01-06T05:46:30;15.32;;;10.68;;
55328;SDS011;41205;44.264;19.884;2024-01-06T05:48:56;16.70;;;8.57;;
55328;SDS011;41205;44.264;19.884;2024-01-06T05:51:22;14.57;;;10.25;;
55328;SDS011;41205;44.264;19.884;2024-01-06T05:53:48;12.07;;;7.95;;
55328;SDS011;41205;44.264;19.884;2024-01-06T05:56:26;11.00;;;8.98;;
55328;SDS011;41205;44.264;19.884;2024-01-06T05:58:55;13.52;;;11.70;;
55328;SDS011;41205;44.264;19.884;2024-01-06T06:01:21;12.65;;;8.38;;
55328;SDS011;41205;44.264;19.884;2024-01-06T06:03:46;18.13;;;11.23;;
55328;SDS011;41205;44.264;19.884;2024-01-06T06:06:13;25.90;;;18.70;;
55328;SDS011;41205;44.264;19.884;2024-01-06T06:08:40;31.45;;;23.50;;
55328;SDS011;41205;44.264;19.884;2024-01-06T06:11:07;109.82;;;78.30;;
55328;SDS011;41205;44.264;19.884;2024-01-06T06:13:36;36.03;;;25.73;;
55328;SDS011;41205;44.264;19.884;2024-01-06T06:16:06;27.60;;;20.08;;
55328;SDS011;41205;44.264;19.884;2024-01-06T06:18:34;19.90;;;15.85;;
55328;SDS011;41205;44.264;19.884;2024-01-06T06:21:00;16.63;;;13.32;;
55328;SDS011;41205;44.264;19.884;2024-01-06T06:23:28;18.85;;;12.07;;
55328;SDS011;41205;44.264;19.884;2024-01-06T06:25:55;24.98;;;14.02;;
55328;SDS011;41205;44.264;19.884;2024-01-06T06:28:21;27.67;;;16.98;;
55328;SDS011;41205;44.264;19.884;2024-01-06T06:30:46;25.38;;;14.48;;
55328;SDS011;41205;44.264;19.884;2024-01-06T06:33:12;24.48;;;15.93;;
55328;SDS011;41205;44.264;19.884;2024-01-06T06:35:38;37.50;;;22.23;;
55328;SDS011;41205;44.264;19.884;2024-01-06T06:38:04;74.57;;;49.33;;
55328;SDS011;41205;44.264;19.884;2024-01-06T06:40:29;45.30;;;31.08;;
55328;SDS011;41205;44.264;19.884;2024-01-06T06:42:55;62.05;;;41.67;;
55328;SDS011;41205;44.264;19.884;2024-01-06T06:45:23;34.65;;;23.17;;
55328;SDS011;41205;44.264;19.884;2024-01-06T06:47:49;51.58;;;34.55;;
55328;SDS011;41205;44.264;19.884;2024-01-06T06:50:15;49.33;;;41.20;;
55328;SDS011;41205;44.264;19.884;2024-01-06T06:52:41;42.78;;;35.83;;
55328;SDS011;41205;44.264;19.884;2024-01-06T06:55:08;36.97;;;24.23;;
55328;SDS011;41205;44.264;19.884;2024-01-06T06:57:33;36.75;;;26.38;;
55328;SDS011;41205;44.264;19.884;2024-01-06T06:59:59;47.22;;;33.92;;
55328;SDS011;41205;44.264;19.884;2024-01-06T07:02:25;85.40;;;55.97;;
55328;SDS011;41205;44.264;19.884;2024-01-06T07:04:51;77.13;;;51.20;;
55328;SDS011;41205;44.264;19.884;2024-01-06T07:07:17;60.03;;;43.90;;
55328;SDS011;41205;44.264;19.884;2024-01-06T07:09:43;60.45;;;47.85;;
55328;SDS011;41205;44.264;19.884;2024-01-06T07:12:08;46.38;;;33.22;;
55328;SDS011;41205;44.264;19.884;2024-01-06T07:14:34;46.60;;;32.70;;
55328;SDS011;41205;44.264;19.884;2024-01-06T07:17:00;62.90;;;49.13;;
55328;SDS011;41205;44.264;19.884;2024-01-06T07:19:25;122.80;;;81.38;;
55328;SDS011;41205;44.264;19.884;2024-01-06T07:21:51;82.95;;;58.92;;
55328;SDS011;41205;44.264;19.884;2024-01-06T07:24:17;64.40;;;47.53;;
55328;SDS011;41205;44.264;19.884;2024-01-06T07:26:43;63.60;;;44.33;;
55328;SDS011;41205;44.264;19.884;2024-01-06T07:29:08;33.75;;;24.23;;
55328;SDS011;41205;44.264;19.884;2024-01-06T07:31:34;55.47;;;40.80;;
55328;SDS011;41205;44.264;19.884;2024-01-06T07:34:00;225.95;;;174.40;;
55328;SDS011;41205;44.264;19.884;2024-01-06T07:36:25;261.42;;;171.82;;
55328;SDS011;41205;44.264;19.884;2024-01-06T07:38:51;81.00;;;58.42;;
55328;SDS011;41205;44.264;19.884;2024-01-06T07:41:17;91.40;;;69.43;;
55328;SDS011;41205;44.264;19.884;2024-01-06T07:43:43;146.60;;;115.78;;
55328;SDS011;41205;44.264;19.884;2024-01-06T07:46:09;262.27;;;182.73;;
55328;SDS011;41205;44.264;19.884;2024-01-06T07:48:35;105.85;;;87.00;;
55328;SDS011;41205;44.264;19.884;2024-01-06T07:51:01;100.45;;;79.93;;
55328;SDS011;41205;44.264;19.884;2024-01-06T07:53:28;79.80;;;60.42;;
55328;SDS011;41205;44.264;19.884;2024-01-06T07:55:54;122.55;;;88.18;;
55328;SDS011;41205;44.264;19.884;2024-01-06T07:58:20;99.25;;;71.68;;
55328;SDS011;41205;44.264;19.884;2024-01-06T08:00:47;63.78;;;47.22;;
55328;SDS011;41205;44.264;19.884;2024-01-06T08:03:13;64.45;;;50.10;;
55328;SDS011;41205;44.264;19.884;2024-01-06T08:05:38;104.05;;;76.70;;
55328;SDS011;41205;44.264;19.884;2024-01-06T08:08:05;116.43;;;102.85;;
55328;SDS011;41205;44.264;19.884;2024-01-06T08:10:30;123.03;;;105.35;;
55328;SDS011;41205;44.264;19.884;2024-01-06T08:12:56;118.40;;;93.90;;
55328;SDS011;41205;44.264;19.884;2024-01-06T08:15:22;109.25;;;82.22;;
55328;SDS011;41205;44.264;19.884;2024-01-06T08:17:48;106.20;;;82.97;;
55328;SDS011;41205;44.264;19.884;2024-01-06T08:20:13;126.97;;;93.05;;
55328;SDS011;41205;44.264;19.884;2024-01-06T08:22:39;80.97;;;62.90;;
55328;SDS011;41205;44.264;19.884;2024-01-06T08:25:05;77.05;;;53.95;;
55328;SDS011;41205;44.264;19.884;2024-01-06T08:27:32;91.32;;;62.83;;
55328;SDS011;41205;44.264;19.884;2024-01-06T08:29:58;78.28;;;50.38;;
55328;SDS011;41205;44.264;19.884;2024-01-06T08:32:24;87.05;;;51.75;;
55328;SDS011;41205;44.264;19.884;2024-01-06T08:34:50;49.63;;;34.38;;
55328;SDS011;41205;44.264;19.884;2024-01-06T08:37:16;94.00;;;59.78;;
55328;SDS011;41205;44.264;19.884;2024-01-06T08:39:41;60.08;;;41.05;;
55328;SDS011;41205;44.264;19.884;2024-01-06T08:42:07;60.25;;;42.45;;
55328;SDS011;41205;44.264;19.884;2024-01-06T08:44:33;110.60;;;67.72;;
55328;SDS011;41205;44.264;19.884;2024-01-06T08:46:59;144.15;;;105.35;;
55328;SDS011;41205;44.264;19.884;2024-01-06T08:49:24;99.63;;;73.15;;
55328;SDS011;41205;44.264;19.884;2024-01-06T08:51:50;93.85;;;63.72;;
55328;SDS011;41205;44.264;19.884;2024-01-06T08:54:16;158.50;;;93.13;;
55328;SDS011;41205;44.264;19.884;2024-01-06T08:56:42;39.03;;;23.15;;
55328;SDS011;41205;44.264;19.884;2024-01-06T08:59:07;88.82;;;55.08;;
55328;SDS011;41205;44.264;19.884;2024-01-06T09:01:33;61.83;;;44.67;;
55328;SDS011;41205;44.264;19.884;2024-01-06T09:04:01;48.65;;;32.38;;
55328;SDS011;41205;44.264;19.884;2024-01-06T09:06:27;43.10;;;27.90;;
55328;SDS011;41205;44.264;19.884;2024-01-06T09:08:53;50.33;;;34.35;;
55328;SDS011;41205;44.264;19.884;2024-01-06T09:11:19;29.15;;;20.52;;
55328;SDS011;41205;44.264;19.884;2024-01-06T09:13:44;29.40;;;21.08;;
55328;SDS011;41205;44.264;19.884;2024-01-06T09:16:10;48.78;;;32.63;;
55328;SDS011;41205;44.264;19.884;2024-01-06T09:18:36;36.28;;;26.17;;
55328;SDS011;41205;44.264;19.884;2024-01-06T09:21:02;114.78;;;75.93;;
55328;SDS011;41205;44.264;19.884;2024-01-06T09:23:28;95.43;;;65.28;;
55328;SDS011;41205;44.264;19.884;2024-01-06T09:25:54;62.95;;;37.15;;
55328;SDS011;41205;44.264;19.884;2024-01-06T09:28:20;93.78;;;53.35;;
55328;SDS011;41205;44.264;19.884;2024-01-06T09:30:46;233.45;;;120.53;;
55328;SDS011;41205;44.264;19.884;2024-01-06T09:33:12;423.60;;;204.32;;
55328;SDS011;41205;44.264;19.884;2024-01-06T09:35:41;243.68;;;117.32;;
55328;SDS011;41205;44.264;19.884;2024-01-06T09:38:07;75.00;;;43.92;;
55328;SDS011;41205;44.264;19.884;2024-01-06T09:40:33;50.17;;;32.53;;
55328;SDS011;41205;44.264;19.884;2024-01-06T09:43:00;62.53;;;47.20;;
55328;SDS011;41205;44.264;19.884;2024-01-06T09:45:27;52.13;;;37.33;;
55328;SDS011;41205;44.264;19.884;2024-01-06T09:47:54;61.60;;;44.03;;
55328;SDS011;41205;44.264;19.884;2024-01-06T09:50:20;28.75;;;19.70;;
55328;SDS011;41205;44.264;19.884;2024-01-06T09:52:47;37.08;;;23.10;;
55328;SDS011;41205;44.264;19.884;2024-01-06T09:55:25;40.53;;;28.10;;
55328;SDS011;41205;44.264;19.884;2024-01-06T09:57:52;53.08;;;37.08;;
55328;SDS011;41205;44.264;19.884;2024-01-06T10:00:19;60.47;;;43.33;;
55328;SDS011;41205;44.264;19.884;2024-01-06T10:02:46;58.67;;;39.92;;
55328;SDS011;41205;44.264;19.884;2024-01-06T10:05:20;78.05;;;56.90;;
55328;SDS011;41205;44.264;19.884;2024-01-06T10:07:46;50.90;;;37.10;;
55328;SDS011;41205;44.264;19.884;2024-01-06T10:10:13;76.50;;;53.00;;
55328;SDS011;41205;44.264;19.884;2024-01-06T10:12:40;87.25;;;58.80;;
55328;SDS011;41205;44.264;19.884;2024-01-06T10:15:10;58.70;;;42.58;;
55328;SDS011;41205;44.264;19.884;2024-01-06T10:17:40;60.30;;;39.95;;
55328;SDS011;41205;44.264;19.884;2024-01-06T10:20:11;70.07;;;47.30;;
55328;SDS011;41205;44.264;19.884;2024-01-06T10:22:38;66.53;;;45.92;;
55328;SDS011;41205;44.264;19.884;2024-01-06T10:25:06;73.20;;;50.00;;
55328;SDS011;41205;44.264;19.884;2024-01-06T10:27:40;51.65;;;35.90;;
55328;SDS011;41205;44.264;19.884;2024-01-06T10:30:07;61.15;;;40.40;;
55328;SDS011;41205;44.264;19.884;2024-01-06T10:32:34;70.30;;;43.67;;
55328;SDS011;41205;44.264;19.884;2024-01-06T10:35:01;53.03;;;32.00;;
55328;SDS011;41205;44.264;19.884;2024-01-06T10:37:28;29.23;;;18.13;;
55328;SDS011;41205;44.264;19.884;2024-01-06T10:40:10;44.92;;;29.08;;
55328;SDS011;41205;44.264;19.884;2024-01-06T10:42:38;101.18;;;71.22;;
55328;SDS011;41205;44.264;19.884;2024-01-06T10:45:08;93.60;;;68.07;;
55328;SDS011;41205;44.264;19.884;2024-01-06T10:47:39;106.32;;;78.20;;
55328;SDS011;41205;44.264;19.884;2024-01-06T10:50:09;85.75;;;66.95;;
55328;SDS011;41205;44.264;19.884;2024-01-06T10:52:39;99.60;;;74.35;;
55328;SDS011;41205;44.264;19.884;2024-01-06T10:55:06;106.47;;;79.03;;
55328;SDS011;41205;44.264;19.884;2024-01-06T10:57:31;73.45;;;47.15;;
55328;SDS011;41205;44.264;19.884;2024-01-06T10:59:58;85.97;;;63.00;;
55328;SDS011;41205;44.264;19.884;2024-01-06T11:02:25;93.25;;;66.47;;
55328;SDS011;41205;44.264;19.884;2024-01-06T11:04:51;75.30;;;52.10;;
55328;SDS011;41205;44.264;19.884;2024-01-06T11:07:18;48.50;;;31.63;;
55328;SDS011;41205;44.264;19.884;2024-01-06T11:09:59;144.60;;;94.70;;
55328;SDS011;41205;44.264;19.884;2024-01-06T11:12:43;217.73;;;146.15;;
55328;SDS011;41205;44.264;19.884;2024-01-06T11:15:09;223.27;;;147.00;;
55328;SDS011;41205;44.264;19.884;2024-01-06T11:17:51;262.08;;;187.95;;
55328;SDS011;41205;44.264;19.884;2024-01-06T11:20:23;76.07;;;54.58;;
55328;SDS011;41205;44.264;19.884;2024-01-06T11:22:52;66.18;;;51.40;;
55328;SDS011;41205;44.264;19.884;2024-01-06T11:25:18;71.30;;;51.65;;
55328;SDS011;41205;44.264;19.884;2024-01-06T11:27:46;78.47;;;56.67;;
55328;SDS011;41205;44.264;19.884;2024-01-06T11:30:23;82.80;;;53.78;;
55328;SDS011;41205;44.264;19.884;2024-01-06T11:32:51;73.57;;;46.15;;
55328;SDS011;41205;44.264;19.884;2024-01-06T11:35:20;53.92;;;38.13;;
55328;SDS011;41205;44.264;19.884;2024-01-06T11:43:24;59.92;;;44.72;;
55328;SDS011;41205;44.264;19.884;2024-01-06T11:45:44;71.28;;;50.80;;
55328;SDS011;41205;44.264;19.884;2024-01-06T11:48:11;69.43;;;50.35;;
55328;SDS011;41205;44.264;19.884;2024-01-06T11:50:37;106.72;;;75.38;;
55328;SDS011;41205;44.264;19.884;2024-01-06T11:53:05;65.05;;;48.05;;
55328;SDS011;41205;44.264;19.884;2024-01-06T11:55:32;62.78;;;41.28;;
55328;SDS011;41205;44.264;19.884;2024-01-06T11:57:59;75.75;;;56.05;;
55328;SDS011;41205;44.264;19.884;2024-01-06T12:00:29;80.65;;;57.58;;
55328;SDS011;41205;44.264;19.884;2024-01-06T12:02:55;91.13;;;68.57;;
55328;SDS011;41205;44.264;19.884;2024-01-06T12:05:25;81.10;;;58.15;;
55328;SDS011;41205;44.264;19.884;2024-01-06T12:07:58;119.45;;;86.55;;
55328;SDS011;41205;44.264;19.884;2024-01-06T12:10:26;159.55;;;127.38;;
55328;SDS011;41205;44.264;19.884;2024-01-06T12:13:00;95.03;;;68.00;;
55328;SDS011;41205;44.264;19.884;2024-01-06T12:15:28;97.03;;;69.25;;
55328;SDS011;41205;44.264;19.884;2024-01-06T12:17:56;51.40;;;37.83;;
55328;SDS011;41205;44.264;19.884;2024-01-06T12:20:22;138.80;;;93.95;;
55328;SDS011;41205;44.264;19.884;2024-01-06T12:22:51;82.60;;;61.33;;
55328;SDS011;41205;44.264;19.884;2024-01-06T12:25:17;94.85;;;67.88;;
55328;SDS011;41205;44.264;19.884;2024-01-06T12:27:43;81.13;;;57.10;;
55328;SDS011;41205;44.264;19.884;2024-01-06T12:30:16;122.20;;;96.32;;
55328;SDS011;41205;44.264;19.884;2024-01-06T12:32:44;151.50;;;118.03;;
55328;SDS011;41205;44.264;19.884;2024-01-06T12:35:11;180.90;;;140.32;;
55328;SDS011;41205;44.264;19.884;2024-01-06T12:37:37;193.40;;;146.48;;
55328;SDS011;41205;44.264;19.884;2024-01-06T12:40:04;166.15;;;129.40;;
55328;SDS011;41205;44.264;19.884;2024-01-06T12:42:30;178.52;;;135.45;;
55328;SDS011;41205;44.264;19.884;2024-01-06T12:44:56;189.48;;;139.95;;
55328;SDS011;41205;44.264;19.884;2024-01-06T12:47:22;136.60;;;98.07;;
55328;SDS011;41205;44.264;19.884;2024-01-06T12:49:49;137.48;;;100.88;;
55328;SDS011;41205;44.264;19.884;2024-01-06T12:52:14;99.25;;;70.03;;
55328;SDS011;41205;44.264;19.884;2024-01-06T12:54:40;110.53;;;76.07;;
55328;SDS011;41205;44.264;19.884;2024-01-06T12:57:07;100.47;;;70.82;;
55328;SDS011;41205;44.264;19.884;2024-01-06T12:59:33;99.88;;;68.90;;
55328;SDS011;41205;44.264;19.884;2024-01-06T13:01:58;97.68;;;73.47;;
55328;SDS011;41205;44.264;19.884;2024-01-06T13:04:24;131.70;;;98.65;;
55328;SDS011;41205;44.264;19.884;2024-01-06T13:06:50;121.38;;;82.57;;
55328;SDS011;41205;44.264;19.884;2024-01-06T13:09:16;83.45;;;62.03;;
55328;SDS011;41205;44.264;19.884;2024-01-06T13:11:42;59.55;;;45.17;;
55328;SDS011;41205;44.264;19.884;2024-01-06T13:14:11;56.53;;;40.45;;
55328;SDS011;41205;44.264;19.884;2024-01-06T13:16:37;61.97;;;45.15;;
55328;SDS011;41205;44.264;19.884;2024-01-06T13:19:03;70.53;;;48.38;;
55328;SDS011;41205;44.264;19.884;2024-01-06T13:21:29;105.95;;;75.32;;
55328;SDS011;41205;44.264;19.884;2024-01-06T13:23:55;113.63;;;83.05;;
55328;SDS011;41205;44.264;19.884;2024-01-06T13:26:26;152.82;;;119.22;;
55328;SDS011;41205;44.264;19.884;2024-01-06T13:28:53;115.63;;;89.90;;
55328;SDS011;41205;44.264;19.884;2024-01-06T13:31:19;123.13;;;92.68;;
55328;SDS011;41205;44.264;19.884;2024-01-06T13:33:45;130.40;;;96.25;;
55328;SDS011;41205;44.264;19.884;2024-01-06T13:36:11;158.63;;;116.93;;
55328;SDS011;41205;44.264;19.884;2024-01-06T13:38:37;440.70;;;302.58;;
55328;SDS011;41205;44.264;19.884;2024-01-06T13:41:03;459.80;;;314.35;;
55328;SDS011;41205;44.264;19.884;2024-01-06T13:43:29;542.13;;;328.67;;
55328;SDS011;41205;44.264;19.884;2024-01-06T13:45:57;331.73;;;194.07;;
55328;SDS011;41205;44.264;19.884;2024-01-06T13:48:23;551.83;;;307.25;;
55328;SDS011;41205;44.264;19.884;2024-01-06T13:50:49;650.30;;;403.13;;
55328;SDS011;41205;44.264;19.884;2024-01-06T13:53:15;555.50;;;355.27;;
55328;SDS011;41205;44.264;19.884;2024-01-06T13:55:41;610.58;;;398.85;;
55328;SDS011;41205;44.264;19.884;2024-01-06T13:58:07;918.42;;;573.33;;
55328;SDS011;41205;44.264;19.884;2024-01-06T14:00:34;1193.70;;;682.35;;
55328;SDS011;41205;44.264;19.884;2024-01-06T14:03:00;1023.35;;;590.30;;
55328;SDS011;41205;44.264;19.884;2024-01-06T14:05:27;1311.00;;;703.45;;
55328;SDS011;41205;44.264;19.884;2024-01-06T14:07:53;629.50;;;435.98;;